createdAt,value
2017-09-28T00:00:18.418Z,15.97
2017-09-28T00:02:45.929Z,15.77
2017-09-28T00:05:14.230Z,16.30
2017-09-28T00:07:41.734Z,15.33
2017-09-28T00:10:10.029Z,16.67
2017-09-28T00:12:37.567Z,16.80
2017-09-28T00:15:05.078Z,15.50
2017-09-28T00:17:32.641Z,19.50
2017-09-28T00:20:00.133Z,16.20
2017-09-28T00:22:27.658Z,17.13
2017-09-28T00:24:55.161Z,17.77
2017-09-28T00:27:22.669Z,17.67
2017-09-28T00:29:50.197Z,18.20
2017-09-28T00:32:17.769Z,18.23
2017-09-28T00:34:45.297Z,18.33
2017-09-28T00:37:12.809Z,18.57
2017-09-28T00:39:40.306Z,19.50
2017-09-28T00:42:07.837Z,18.97
2017-09-28T00:44:35.348Z,19.43
2017-09-28T00:47:02.885Z,19.00
2017-09-28T00:49:30.398Z,18.93
2017-09-28T00:51:57.914Z,17.47
2017-09-28T00:54:25.436Z,16.77
2017-09-28T00:56:52.951Z,16.40
2017-09-28T00:59:20.485Z,16.00
2017-09-28T01:01:48.037Z,14.57
2017-09-28T01:04:15.559Z,12.57
2017-09-28T01:06:43.093Z,12.57
2017-09-28T01:09:10.602Z,14.07
2017-09-28T01:11:38.129Z,12.50
2017-09-28T01:14:05.648Z,12.40
2017-09-28T01:16:33.916Z,12.70
2017-09-28T01:19:01.455Z,12.50
2017-09-28T01:21:28.962Z,12.83
2017-09-28T01:23:56.490Z,11.97
2017-09-28T01:26:24.761Z,12.40
2017-09-28T01:28:52.284Z,15.13
2017-09-28T01:31:19.803Z,12.85
2017-09-28T01:33:47.308Z,15.40
2017-09-28T01:36:14.835Z,14.63
2017-09-28T01:38:42.343Z,15.27
2017-09-28T01:41:09.861Z,17.90
2017-09-28T01:43:37.372Z,19.30
2017-09-28T01:46:05.710Z,17.50
2017-09-28T01:48:33.212Z,19.23
2017-09-28T01:51:01.484Z,18.90
2017-09-28T01:53:29.012Z,20.57
2017-09-28T01:55:56.537Z,20.87
2017-09-28T01:58:24.064Z,25.27
2017-09-28T02:00:52.372Z,24.20
2017-09-28T02:03:19.885Z,24.80
2017-09-28T02:05:47.426Z,22.40
2017-09-28T02:08:14.950Z,24.07
2017-09-28T02:10:42.478Z,23.03
2017-09-28T02:13:10.018Z,22.57
2017-09-28T02:15:37.541Z,22.00
2017-09-28T02:18:05.072Z,20.43
2017-09-28T02:20:32.582Z,20.00
2017-09-28T02:23:00.113Z,20.10
2017-09-28T02:25:27.655Z,18.43
2017-09-28T02:27:55.170Z,18.37
2017-09-28T02:30:23.470Z,17.05
2017-09-28T02:32:51.736Z,16.80
2017-09-28T02:35:20.045Z,15.70
2017-09-28T02:37:47.551Z,15.33
2017-09-28T02:40:15.062Z,15.40
2017-09-28T02:42:42.593Z,15.57
2017-09-28T02:45:10.109Z,14.20
2017-09-28T02:47:37.632Z,15.50
2017-09-28T02:50:05.163Z,14.50
2017-09-28T02:52:32.676Z,14.80
2017-09-28T02:55:00.203Z,14.40
2017-09-28T02:57:27.717Z,15.23
2017-09-28T02:59:55.245Z,16.13
2017-09-28T03:02:22.756Z,15.40
2017-09-28T03:04:51.057Z,14.57
2017-09-28T03:07:18.564Z,15.20
2017-09-28T03:09:46.101Z,15.00
2017-09-28T03:12:13.637Z,14.23
2017-09-28T03:14:41.143Z,12.80
2017-09-28T03:17:08.672Z,13.60
2017-09-28T03:19:36.168Z,12.57
2017-09-28T03:22:03.671Z,13.20
2017-09-28T03:24:31.194Z,13.33
2017-09-28T03:26:59.452Z,12.40
2017-09-28T03:29:26.951Z,14.90
2017-09-28T03:31:54.479Z,13.00
2017-09-28T03:34:22.740Z,13.00
2017-09-28T03:36:50.243Z,11.77
2017-09-28T03:39:17.759Z,12.30
2017-09-28T03:41:45.263Z,11.63
2017-09-28T03:44:12.767Z,12.43
2017-09-28T03:46:40.284Z,12.53
2017-09-28T03:49:07.784Z,11.70
2017-09-28T03:51:35.288Z,11.30
2017-09-28T03:54:02.813Z,13.20
2017-09-28T03:56:30.316Z,12.37
2017-09-28T03:58:57.824Z,11.90
2017-09-28T04:01:25.343Z,12.50
2017-09-28T04:03:52.867Z,12.53
2017-09-28T04:06:20.372Z,11.60
2017-09-28T04:08:47.887Z,12.10
2017-09-28T04:11:16.148Z,11.73
2017-09-28T04:13:43.692Z,12.80
2017-09-28T04:16:11.202Z,12.25
2017-09-28T04:18:38.708Z,12.60
2017-09-28T04:21:06.231Z,12.07
2017-09-28T04:23:33.736Z,13.00
2017-09-28T04:26:02.019Z,11.97
2017-09-28T04:28:30.299Z,12.60
2017-09-28T04:30:58.573Z,12.70
2017-09-28T04:33:26.856Z,13.13
2017-09-28T04:35:54.360Z,13.90
2017-09-28T04:38:21.881Z,14.80
2017-09-28T04:40:49.380Z,14.73
2017-09-28T04:43:16.904Z,13.73
2017-09-28T04:45:44.429Z,13.40
2017-09-28T04:48:15.219Z,13.90
2017-09-28T04:50:42.739Z,13.50
2017-09-28T04:53:10.248Z,13.27
2017-09-28T04:55:37.753Z,13.10
2017-09-28T04:58:05.291Z,14.03
2017-09-28T05:00:32.978Z,12.20
2017-09-28T05:03:00.501Z,13.47
2017-09-28T05:05:34.187Z,11.77
2017-09-28T05:08:01.711Z,13.67
2017-09-28T05:10:29.248Z,12.23
2017-09-28T05:12:56.772Z,14.00
2017-09-28T05:15:24.286Z,13.33
2017-09-28T05:17:51.821Z,13.63
2017-09-28T05:20:19.337Z,12.37
2017-09-28T05:22:46.865Z,13.40
2017-09-28T05:25:14.365Z,12.00
2017-09-28T05:27:41.871Z,13.20
2017-09-28T05:30:09.399Z,12.53
2017-09-28T05:32:36.896Z,13.57
2017-09-28T05:35:04.405Z,14.20
2017-09-28T05:37:31.932Z,14.20
2017-09-28T05:39:59.469Z,13.87
2017-09-28T05:42:29.945Z,13.80
2017-09-28T05:44:57.451Z,13.87
2017-09-28T05:47:24.961Z,15.23
2017-09-28T05:49:52.521Z,15.57
2017-09-28T05:52:20.045Z,14.60
2017-09-28T05:54:47.592Z,13.23
2017-09-28T05:57:15.091Z,14.80
2017-09-28T05:59:42.606Z,14.27
2017-09-28T06:02:10.955Z,14.43
2017-09-28T06:04:38.525Z,14.33
2017-09-28T06:09:36.940Z,14.00
2017-09-28T06:12:04.466Z,13.60
2017-09-28T06:14:33.955Z,14.97
2017-09-28T06:17:01.464Z,14.60
2017-09-28T06:19:28.998Z,14.77
2017-09-28T06:21:56.513Z,14.07
2017-09-28T06:24:24.040Z,15.70
2017-09-28T06:26:51.560Z,17.27
2017-09-28T06:29:19.862Z,15.13
2017-09-28T06:31:47.376Z,16.17
2017-09-28T06:34:14.890Z,15.77
2017-09-28T06:36:42.418Z,15.90
2017-09-28T06:39:10.711Z,15.23
2017-09-28T06:41:38.242Z,15.67
2017-09-28T06:44:06.525Z,15.47
2017-09-28T06:46:34.807Z,16.70
2017-09-28T06:49:03.105Z,16.90
2017-09-28T06:51:30.612Z,16.80
2017-09-28T06:53:58.131Z,16.23
2017-09-28T06:56:25.645Z,16.47
2017-09-28T06:58:53.917Z,15.93
2017-09-28T07:01:21.444Z,17.37
2017-09-28T07:03:48.944Z,17.70
2017-09-28T07:06:17.233Z,16.93
2017-09-28T07:08:44.754Z,15.90
2017-09-28T07:11:12.264Z,16.00
2017-09-28T07:13:45.766Z,17.10
2017-09-28T07:16:13.275Z,17.20
2017-09-28T07:18:44.248Z,16.30
2017-09-28T07:21:11.765Z,16.40
2017-09-28T07:23:39.287Z,15.73
2017-09-28T07:26:06.805Z,15.80
2017-09-28T07:28:35.100Z,15.07
2017-09-28T07:31:02.632Z,14.20
2017-09-28T07:33:30.909Z,14.80
2017-09-28T07:35:59.214Z,15.30
2017-09-28T07:38:26.716Z,16.67
2017-09-28T07:40:55.136Z,16.13
2017-09-28T07:43:23.413Z,14.70
2017-09-28T07:45:50.922Z,15.53
2017-09-28T07:48:18.457Z,15.17
2017-09-28T07:50:45.971Z,14.10
2017-09-28T07:53:13.498Z,14.97
2017-09-28T07:55:41.017Z,14.47
2017-09-28T07:58:08.556Z,14.23
2017-09-28T08:00:36.829Z,14.17
2017-09-28T08:03:05.113Z,14.47
2017-09-28T08:05:33.407Z,13.70
2017-09-28T08:08:00.910Z,12.20
2017-09-28T08:10:28.444Z,13.37
2017-09-28T08:12:55.961Z,11.80
2017-09-28T08:15:24.242Z,12.17
2017-09-28T08:17:51.768Z,11.93
2017-09-28T08:20:20.115Z,11.20
2017-09-28T08:22:47.645Z,11.80
2017-09-28T08:25:15.158Z,11.33
2017-09-28T08:27:42.677Z,10.80
2017-09-28T08:30:10.176Z,11.53
2017-09-28T08:32:37.680Z,11.40
2017-09-28T08:35:05.210Z,10.67
2017-09-28T08:37:33.488Z,12.00
2017-09-28T08:40:01.790Z,10.07
2017-09-28T08:42:29.304Z,10.73
2017-09-28T08:44:56.836Z,10.97
2017-09-28T08:47:24.352Z,11.13
2017-09-28T08:49:52.619Z,10.67
2017-09-28T08:52:20.908Z,10.57
2017-09-28T08:54:48.408Z,9.53
2017-09-28T08:57:15.936Z,8.87
2017-09-28T08:59:43.444Z,9.20
2017-09-28T09:02:10.941Z,8.30
2017-09-28T09:04:38.469Z,9.20
2017-09-28T09:07:06.032Z,10.20
2017-09-28T09:09:34.334Z,10.63
2017-09-28T09:12:01.841Z,9.40
2017-09-28T09:14:29.362Z,9.10
2017-09-28T09:16:56.889Z,9.27
2017-09-28T09:19:28.185Z,8.97
2017-09-28T09:21:55.706Z,7.90
2017-09-28T09:24:23.213Z,8.90
2017-09-28T09:26:50.730Z,8.50
2017-09-28T09:29:18.262Z,8.87
2017-09-28T09:31:45.912Z,8.23
2017-09-28T09:34:13.443Z,8.47
2017-09-28T09:36:40.959Z,8.10
2017-09-28T09:39:09.252Z,8.50
2017-09-28T09:41:36.789Z,7.77
2017-09-28T09:44:05.060Z,7.27
2017-09-28T09:46:33.375Z,8.27
2017-09-28T09:49:00.893Z,7.63
2017-09-28T09:51:29.188Z,7.33
2017-09-28T09:53:56.690Z,7.40
2017-09-28T09:56:24.207Z,7.73
2017-09-28T09:58:51.744Z,8.20
2017-09-28T10:01:19.258Z,7.67
2017-09-28T10:03:46.793Z,7.20
2017-09-28T10:06:14.296Z,8.13
2017-09-28T10:08:57.704Z,7.30
2017-09-28T10:11:35.749Z,8.03
2017-09-28T10:14:08.550Z,7.20
2017-09-28T10:16:36.850Z,7.47
2017-09-28T10:19:04.368Z,6.90
2017-09-28T10:21:31.892Z,7.13
2017-09-28T10:23:59.387Z,7.37
2017-09-28T10:26:26.904Z,7.80
2017-09-28T10:28:58.237Z,6.57
2017-09-28T10:31:25.756Z,8.10
2017-09-28T10:33:54.012Z,7.40
2017-09-28T10:36:21.507Z,7.50
2017-09-28T10:38:49.019Z,7.10
2017-09-28T10:41:16.520Z,7.20
2017-09-28T10:43:44.956Z,6.90
2017-09-28T10:46:12.452Z,6.77
2017-09-28T10:48:39.963Z,6.63
2017-09-28T10:51:07.457Z,7.37
2017-09-28T10:53:35.732Z,5.83
2017-09-28T10:56:04.020Z,7.63
2017-09-28T10:58:31.514Z,7.50
2017-09-28T11:00:59.032Z,7.20
2017-09-28T11:03:26.534Z,7.53
2017-09-28T11:05:54.052Z,7.40
2017-09-28T11:08:21.569Z,6.30
2017-09-28T11:10:49.059Z,5.93
2017-09-28T11:13:17.349Z,7.03
2017-09-28T11:15:44.854Z,6.97
2017-09-28T11:18:12.369Z,6.30
2017-09-28T11:20:39.864Z,7.17
2017-09-28T11:23:07.366Z,7.53
2017-09-28T11:25:35.661Z,6.80
2017-09-28T11:28:03.169Z,6.00
2017-09-28T11:30:34.457Z,6.10
2017-09-28T11:33:02.715Z,6.83
2017-09-28T11:35:30.992Z,5.70
2017-09-28T11:37:59.626Z,6.57
2017-09-28T11:40:27.148Z,6.00
2017-09-28T11:42:55.428Z,5.53
2017-09-28T11:45:22.928Z,5.40
2017-09-28T11:47:50.427Z,6.60
2017-09-28T11:50:18.709Z,6.27
2017-09-28T11:52:46.968Z,5.50
2017-09-28T11:55:14.475Z,6.03
2017-09-28T11:57:41.992Z,5.17
2017-09-28T12:00:10.245Z,5.40
2017-09-28T12:02:37.737Z,6.30
2017-09-28T12:05:09.856Z,5.83
2017-09-28T12:07:37.367Z,6.33
2017-09-28T12:10:04.872Z,5.77
2017-09-28T12:12:32.397Z,5.50
2017-09-28T12:14:59.893Z,5.93
2017-09-28T12:17:27.396Z,5.50
2017-09-28T12:19:55.676Z,6.07
2017-09-28T12:22:23.178Z,6.40
2017-09-28T12:24:50.677Z,6.40
2017-09-28T12:27:18.973Z,5.93
2017-09-28T12:29:46.473Z,6.10
2017-09-28T12:32:14.020Z,6.33
2017-09-28T12:34:41.500Z,6.03
2017-09-28T12:37:09.006Z,6.50
2017-09-28T12:39:36.513Z,6.73
2017-09-28T12:42:04.021Z,5.80
2017-09-28T12:44:32.116Z,6.40
2017-09-28T12:46:59.608Z,6.60
2017-09-28T12:49:27.104Z,5.87
2017-09-28T12:51:54.648Z,6.10
2017-09-28T12:54:22.914Z,5.93
2017-09-28T12:56:51.195Z,5.53
2017-09-28T12:59:19.465Z,6.50
2017-09-28T13:01:47.756Z,6.17
2017-09-28T13:04:19.772Z,6.20
2017-09-28T13:06:47.285Z,6.77
2017-09-28T13:09:14.785Z,6.20
2017-09-28T13:11:42.296Z,6.00
2017-09-28T13:14:09.850Z,6.20
2017-09-28T13:16:38.118Z,6.20
2017-09-28T13:19:06.501Z,6.50
2017-09-28T13:21:38.281Z,6.30
2017-09-28T13:24:05.823Z,7.23
2017-09-28T13:26:34.105Z,6.87
2017-09-28T13:29:01.619Z,6.30
2017-09-28T13:31:29.137Z,6.77
2017-09-28T13:33:56.648Z,6.57
2017-09-28T13:36:24.169Z,6.70
2017-09-28T13:38:51.665Z,7.10
2017-09-28T13:41:19.161Z,6.40
2017-09-28T13:43:46.682Z,6.97
2017-09-28T13:46:14.183Z,7.77
2017-09-28T13:48:41.715Z,6.47
2017-09-28T13:51:09.979Z,7.13
2017-09-28T13:53:38.260Z,6.97
2017-09-28T13:56:05.787Z,7.73
2017-09-28T13:58:33.300Z,7.83
2017-09-28T14:01:00.824Z,7.47
2017-09-28T14:03:28.329Z,7.00
2017-09-28T14:05:55.824Z,6.90
2017-09-28T14:08:23.355Z,6.10
2017-09-28T14:10:50.858Z,6.80
2017-09-28T14:13:18.395Z,7.57
2017-09-28T14:15:45.896Z,6.50
2017-09-28T14:18:14.187Z,7.27
2017-09-28T14:20:41.695Z,6.83
2017-09-28T14:23:09.200Z,6.00
2017-09-28T14:25:36.816Z,6.50
2017-09-28T14:28:04.321Z,5.97
2017-09-28T14:30:31.833Z,6.90
2017-09-28T14:32:59.347Z,5.37
2017-09-28T14:35:26.875Z,5.80
2017-09-28T14:37:54.379Z,6.00
2017-09-28T14:40:21.903Z,6.10
2017-09-28T14:42:49.425Z,6.40
2017-09-28T14:45:17.853Z,6.47
2017-09-28T14:47:45.379Z,6.03
2017-09-28T14:50:13.660Z,5.90
2017-09-28T14:52:41.951Z,5.60
2017-09-28T14:55:09.493Z,6.07
2017-09-28T14:57:36.991Z,6.00
2017-09-28T15:00:04.535Z,6.07
2017-09-28T15:02:32.038Z,6.07
2017-09-28T15:04:59.558Z,5.53
2017-09-28T15:07:27.059Z,6.17
2017-09-28T15:09:54.599Z,5.67
2017-09-28T15:12:22.116Z,5.40
2017-09-28T15:14:49.633Z,6.70
2017-09-28T15:17:17.183Z,5.77
2017-09-28T15:19:44.703Z,7.00
2017-09-28T15:22:12.225Z,5.77
2017-09-28T15:24:39.725Z,6.03
2017-09-28T15:27:07.276Z,6.17
2017-09-28T15:29:34.793Z,7.00
2017-09-28T15:32:02.288Z,6.10
2017-09-28T15:34:31.757Z,7.00
2017-09-28T15:36:59.268Z,6.27
2017-09-28T15:39:26.804Z,6.00
2017-09-28T15:41:54.321Z,6.93
2017-09-28T15:44:21.853Z,6.27
2017-09-28T15:46:49.389Z,6.40
2017-09-28T15:49:16.921Z,6.90
2017-09-28T15:51:44.495Z,6.47
2017-09-28T15:54:12.034Z,6.87
2017-09-28T15:56:39.584Z,6.33
2017-09-28T15:59:07.135Z,6.33
2017-09-28T16:01:34.674Z,6.57
2017-09-28T16:04:02.933Z,6.37
2017-09-28T16:06:30.457Z,6.90
2017-09-28T16:08:57.984Z,7.43
2017-09-28T16:11:25.499Z,6.60
2017-09-28T16:13:53.029Z,6.57
2017-09-28T16:16:20.535Z,6.00
2017-09-28T16:18:48.079Z,6.20
2017-09-28T16:21:15.604Z,7.00
2017-09-28T16:23:43.134Z,6.93
2017-09-28T16:26:10.645Z,6.90
2017-09-28T16:28:38.188Z,8.10
2017-09-28T16:31:05.706Z,6.70
2017-09-28T16:33:34.239Z,7.90
2017-09-28T16:36:01.780Z,7.03
2017-09-28T16:38:29.281Z,6.83
2017-09-28T16:41:03.618Z,7.20
2017-09-28T16:43:31.112Z,5.90
2017-09-28T16:45:58.641Z,7.90
2017-09-28T16:48:26.142Z,7.10
2017-09-28T16:51:03.361Z,7.57
2017-09-28T16:53:31.626Z,7.43
2017-09-28T16:55:59.905Z,8.33
2017-09-28T16:58:27.417Z,7.87
2017-09-28T17:00:54.928Z,7.80
2017-09-28T17:03:22.743Z,7.67
2017-09-28T17:05:50.253Z,8.47
2017-09-28T17:08:18.564Z,7.77
2017-09-28T17:10:46.077Z,8.37
2017-09-28T17:13:13.603Z,7.97
2017-09-28T17:15:41.118Z,8.00
2017-09-28T17:18:08.642Z,8.33
2017-09-28T17:20:36.948Z,8.47
2017-09-28T17:23:04.450Z,7.97
2017-09-28T17:25:31.977Z,8.60
2017-09-28T17:27:59.482Z,8.73
2017-09-28T17:30:27.001Z,7.90
2017-09-28T17:32:54.515Z,8.17
2017-09-28T17:35:22.048Z,8.63
2017-09-28T17:37:49.582Z,7.53
2017-09-28T17:40:17.089Z,8.37
2017-09-28T17:42:44.617Z,8.30
2017-09-28T17:45:12.116Z,8.23
2017-09-28T17:47:40.411Z,9.43
2017-09-28T17:50:07.937Z,9.30
2017-09-28T17:52:36.268Z,8.53
2017-09-28T17:55:03.797Z,9.50
2017-09-28T17:57:31.324Z,8.80
2017-09-28T17:59:58.867Z,8.57
2017-09-28T18:02:35.733Z,9.33
2017-09-28T18:05:03.273Z,8.87
2017-09-28T18:07:30.809Z,9.17
2017-09-28T18:09:58.360Z,10.13
2017-09-28T18:12:26.655Z,8.73
2017-09-28T18:14:54.215Z,8.50
2017-09-28T18:17:21.729Z,8.63
2017-09-28T18:19:49.257Z,8.47
2017-09-28T18:22:16.807Z,8.57
2017-09-28T18:24:44.337Z,9.17
2017-09-28T18:27:11.899Z,8.40
2017-09-28T18:29:39.434Z,9.00
2017-09-28T18:32:07.774Z,9.40
2017-09-28T18:34:35.315Z,9.10
2017-09-28T18:37:11.278Z,9.03
2017-09-28T18:39:38.798Z,9.60
2017-09-28T18:42:06.403Z,8.80
2017-09-28T18:44:33.995Z,11.53
2017-09-28T18:47:01.541Z,13.60
2017-09-28T18:49:29.150Z,10.50
2017-09-28T18:51:56.686Z,11.27
2017-09-28T18:54:24.242Z,9.20
2017-09-28T18:56:51.766Z,9.40
2017-09-28T18:59:19.320Z,9.13
2017-09-28T19:01:46.855Z,8.50
2017-09-28T19:04:22.041Z,9.40
2017-09-28T19:06:49.617Z,9.50
2017-09-28T19:09:17.158Z,9.10
2017-09-28T19:11:44.728Z,10.00
2017-09-28T19:14:12.289Z,8.73
2017-09-28T19:16:39.856Z,9.60
2017-09-28T19:19:07.457Z,8.90
2017-09-28T19:21:35.022Z,9.17
2017-09-28T19:24:02.553Z,8.50
2017-09-28T19:26:30.072Z,8.57
2017-09-28T19:28:57.591Z,8.80
2017-09-28T19:31:25.130Z,9.07
2017-09-28T19:33:52.673Z,9.80
2017-09-28T19:36:20.983Z,9.20
2017-09-28T19:38:48.529Z,8.30
2017-09-28T19:41:16.061Z,9.50
2017-09-28T19:43:44.358Z,9.40
2017-09-28T19:46:11.904Z,9.70
2017-09-28T19:48:39.445Z,8.93
2017-09-28T19:51:07.039Z,10.07
2017-09-28T19:53:34.599Z,9.60
2017-09-28T19:56:02.981Z,9.90
2017-09-28T19:58:30.528Z,9.30
2017-09-28T20:00:58.066Z,10.37
2017-09-28T20:03:26.626Z,9.83
2017-09-28T20:05:54.193Z,9.20
2017-09-28T20:08:21.842Z,8.87
2017-09-28T20:10:49.466Z,9.27
2017-09-28T20:13:17.012Z,8.87
2017-09-28T20:15:44.595Z,8.97
2017-09-28T20:18:12.118Z,8.40
2017-09-28T20:20:39.653Z,9.70
2017-09-28T20:23:07.186Z,9.67
2017-09-28T20:25:34.730Z,9.83
2017-09-28T20:28:02.901Z,9.70
2017-09-28T20:30:30.453Z,9.30
2017-09-28T20:32:58.029Z,10.50
2017-09-28T20:35:25.730Z,10.07
2017-09-28T20:37:53.278Z,10.00
2017-09-28T20:40:20.798Z,9.60
2017-09-28T20:42:48.372Z,10.13
2017-09-28T20:45:15.927Z,10.07
2017-09-28T20:47:43.526Z,9.73
2017-09-28T20:50:11.143Z,10.40
2017-09-28T20:52:38.704Z,10.47
2017-09-28T20:55:06.262Z,10.10
2017-09-28T20:57:33.815Z,10.87
2017-09-28T21:00:01.369Z,9.83
2017-09-28T21:02:28.955Z,10.70
2017-09-28T21:04:56.509Z,10.77
2017-09-28T21:07:24.047Z,12.07
2017-09-28T21:09:51.584Z,11.60
2017-09-28T21:12:20.037Z,11.47
2017-09-28T21:14:47.549Z,11.70
2017-09-28T21:17:15.101Z,12.03
2017-09-28T21:19:42.621Z,12.90
2017-09-28T21:22:10.186Z,12.80
2017-09-28T21:24:37.788Z,13.77
2017-09-28T21:27:05.310Z,13.90
2017-09-28T21:29:32.859Z,14.00
2017-09-28T21:32:01.169Z,13.87
2017-09-28T21:34:28.730Z,14.00
2017-09-28T21:36:56.248Z,16.30
2017-09-28T21:39:23.793Z,15.07
2017-09-28T21:41:51.379Z,15.80
2017-09-28T21:44:18.938Z,14.50
2017-09-28T21:46:47.398Z,14.00
2017-09-28T21:49:14.988Z,14.03
2017-09-28T21:51:42.560Z,14.93
2017-09-28T21:54:10.109Z,15.40
2017-09-28T21:56:37.662Z,15.03
2017-09-28T21:59:05.210Z,15.07
2017-09-28T22:01:32.737Z,15.30
2017-09-28T22:04:00.273Z,15.87
2017-09-28T22:06:27.892Z,16.23
2017-09-28T22:08:55.462Z,15.20
2017-09-28T22:11:22.991Z,14.50
2017-09-28T22:13:50.531Z,13.63
2017-09-28T22:16:18.096Z,13.20
2017-09-28T22:18:45.638Z,14.40
2017-09-28T22:21:13.219Z,14.67
2017-09-28T22:23:40.735Z,14.70
2017-09-28T22:26:08.301Z,14.33
2017-09-28T22:28:35.851Z,13.57
2017-09-28T22:31:03.473Z,15.23
2017-09-28T22:33:31.032Z,15.90
2017-09-28T22:35:58.567Z,15.63
2017-09-28T22:38:26.162Z,14.63
2017-09-28T22:40:53.693Z,15.50
2017-09-28T22:43:21.255Z,14.77
2017-09-28T22:45:48.793Z,15.23
2017-09-28T22:48:16.358Z,13.80
2017-09-28T22:50:43.879Z,13.60
2017-09-28T22:53:11.396Z,14.47
2017-09-28T22:55:38.950Z,13.80
2017-09-28T22:58:06.481Z,12.13
2017-09-28T23:00:34.027Z,11.27
2017-09-28T23:03:01.556Z,11.27
2017-09-28T23:05:29.112Z,11.60
2017-09-28T23:07:56.644Z,11.60
2017-09-28T23:10:24.176Z,9.83
2017-09-28T23:12:51.707Z,9.93
2017-09-28T23:15:19.230Z,8.93
2017-09-28T23:17:46.780Z,10.17
2017-09-28T23:20:14.321Z,10.90
2017-09-28T23:22:41.864Z,10.47
2017-09-28T23:25:09.423Z,9.73
2017-09-28T23:27:36.967Z,10.63
2017-09-28T23:30:04.507Z,10.70
2017-09-28T23:32:32.060Z,10.50
2017-09-28T23:34:59.624Z,10.17
2017-09-28T23:37:27.160Z,10.50
2017-09-28T23:39:54.714Z,11.10
2017-09-28T23:42:22.254Z,11.60
2017-09-28T23:44:49.794Z,12.80
2017-09-28T23:47:17.319Z,15.30
2017-09-28T23:49:44.849Z,13.70
2017-09-28T23:52:12.393Z,14.83
2017-09-28T23:54:39.917Z,13.43
2017-09-28T23:57:07.475Z,12.30
2017-09-28T23:59:34.994Z,13.60
